Estación Meteorológica Peña el Pijo (Robertgarden) [ 06/14/24 10:39:50 CEST ]

Fecha Hora Presion(HPa) Temp (°C) Humedad % Rocio (°C) Viento ( m/s) Direccion Lluvia 1Hora(mm) Lluvia 24H(mm) LLuvia Total(mm)
2010-Aug-05 01:01:12 1010.500 18.5 51 8.2         130.53
2010-Aug-05 02:01:15 1010.300 17.4 55 8.2         130.53
2010-Aug-05 03:01:48 1010.100 16.8 56 7.9         130.53
2010-Aug-05 04:10:06 1009.600 15.9 61 8.4         130.53
2010-Aug-05 05:10:04 1009.500 15.4 65 8.8         130.53
2010-Aug-05 06:01:42 1009.300 15.6 70 10.2         130.53
2010-Aug-05 07:01:15 1009.500 15.4 73 10.6         130.53
2010-Aug-05 08:01:17 1009.500 15.9 76 11.7         130.53
2010-Aug-05 09:01:12 1009.700 21.6 66 14.9         130.53
2010-Aug-05 10:08:08 1010.100 - - - - S     130.53
2010-Aug-05 11:01:13 1010.000 32.2 31 12.9         130.53
2010-Aug-05 12:01:13 1010.100 32.9 26 10.7         130.53
2010-Aug-05 13:01:17 1009.400 34.1 24 10.4         130.53
2010-Aug-05 14:01:11 1009.700 35.3 23 10.8         130.53
2010-Aug-05 15:01:17 1009.500 34.9 25 11.7         130.53
2010-Aug-05 16:01:12 1009.400 33.9 31 14.4         130.53
2010-Aug-05 17:01:16 1009.300 30.8 39 15.3         130.53
2010-Aug-05 18:01:10 1009.300 29.8 41 15.2         130.53
2010-Aug-05 19:01:11 1009.100 30.9 41 16.2 3.0 NE     130.53
2010-Aug-05 20:01:10 1009.400 28.1 47 15.7         130.53
2010-Aug-05 21:01:18 1009.600 26.1 52 15.5         130.53
2010-Aug-05 22:01:12 1009.900 24.3 56 14.9         130.53
2010-Aug-05 23:01:15 1010.400 23.2 59 14.7 1.0 NNE     130.53

Temperatura Máxima:35°    Temperatura Mínima:
Presión Máxima:1010.500 Hpa    Presión Mínima:1009.100 Hpa


Volver